METAR AND TAF INFORMATION
METAR FOR SKAR
ADDS - METARS form results

(1117 UTC 21 October 2019)
Data provider http://aviationweather.gov/metar/data/
 
METAR text: SKAR 211100Z 00000KT 2000 BR BKN008 SCT080 18/18 A3009 RERA
Conditions at: SKAR (ARMENIA/EL EDEN , CO) observed 1100 UTC 21 October 2019
Temperature: 18.0°C (64°F)
Dewpoint: 18.0°C (64°F) [RH = 100%]
Pressure (altimeter): 30.09 inches Hg (1019.0 mb)
Winds: calm
Visibility: 1.24 miles (2.00 km)
Ceiling: 800 feet AGL
Clouds: broken clouds at 800 feet AGL
scattered clouds at 8000 feet AGL
Weather: BR  (mist)

 AIRPORT MAP

 RUNWAY INFORMATION
Runway 02 Runway length 7045 ft Runway width 118 ft
Runway elevation 3968 ft Runway displaced threshold 0 ft Runway heading 13
Runway 20 Runway length 7045 ft Runway width 118 ft
Runway elevation 3979 ft Runway displaced threshold 0 ft Runway heading 193

 AIRPORT FREQUENCIES
Type APP Name PEREIRA AP Frequency 119.9 MHZ
Type RDO Name ARMENIA RD Frequency 348.8 MHZ
Type TWR Name TWR Frequency 118.5 MHZ

 AIRPORT NEAR NAVIGATION AIDS
Type NDB Name Armenia Frequency 315 KHZ



Powered by Virtual Airlines Manager [v2.6.2]